Florida AWOS List, Phone Numbers

USA |  
| Search AWOS

Rocky Mountain States: Montana | Wyoming | Colorado | New Mexico

Complete weather reports: Florida

Legend: KFNL = METAR available Follow your local AWOS on AV Mobile = METAR available on AV Mobile
Station Florida Location Frequency Phone
KAQQICAO ID KAQQ Apalachicola, Apalachicola
KAAFFAA ID AAF, ASOS, KAAF 201253Z AUTO 02007KT 10SM OVC015 16/12 A3013 Follow KAAF on AV Mobile APALACHICOLA MUNICIPAL AIRPORT 119.925 850-653-8271
KNAEICAO ID KNAE Astor, Bombing Range Detachment Astor
KAVOFAA ID AVO, AWOS-3 AVON PARK 118.725 863-453-4223
KAGRFAA ID AGR Avon Park Gunnery Range
KBOWFAA ID BOW, AWOS-3, KBOW 201115Z AUTO 32010KT 8SM BKN008 OVC014 16/16 A3003 RMK AO2 Follow KBOW on AV Mobile Bartow Municipal 123.775 863-533-9004
F95FAA ID F95, AWOS-AV, K2V5 201325Z AUTO 30003KT 10SM CLR 07/06 A3002 RMK AO2 T00670064 Follow  on AV Mobile BLOUNTSTOWN 119.350 850-674-1347
KBCTFAA ID BCT, AWOS-3, KBCT 201250Z 29009KT 10SM OVC031 M/M A3000 Follow KBCT on AV Mobile Boca Raton, Boca Raton Airport 121.125 561-391-2696
K1J0FAA ID 1J0, K1J0 182158Z AUTO 03011G23KT 4SM -RA BR SCT041 BKN049 OVC055 14/12 A2996 RMK AO2 PK WND 01031/2109 SLP132 P0002 T01390122 Follow K1J0 on AV Mobile TRI COUNTY AIRPORT
KBKVFAA ID BKV, ASOS, KBKV 201253Z 32006KT 5SM BR BKN009 OVC018 16/14 A3008 RMK AO2 SLP184 T01560144 Follow KBKV on AV Mobile BROOKSVILLE HERNANDO CO AIRPORT 134.725 352-799-5881
K1J4ICAO ID K1J4 Cape San Blas Coast Guard Station
KNZCICAO ID KNZC Cecil, Naval Air Station
2ISFAA ID 2IS, AWOS-3, K2V5 201325Z AUTO 30003KT 10SM CLR 07/06 A3002 RMK AO2 T00670064 Follow  on AV Mobile CLEWISTON 124.175 863-983-7020
KX53ICAO ID KX53 Clewiston
KCOFFAA ID COF, KCOF 201258Z AUTO 33013KT 10SM BKN012 OVC020 18/16 A3001 RMK AO2 SLP167 T01820160 $ Follow KCOF on AV Mobile Cocoa / Patrick Air Force Base
KXMRFAA ID XMR, KXMR 201258Z AUTO 34014G22KT 10SM SCT022 19/15 A3000 RMK AO2 SLP162 T01880153 Follow KXMR on AV Mobile Cocoa Beach, Cape Canaveral Air Force Station Skid Strip
KCEWFAA ID CEW, ASOS, KCEW 201253Z AUTO 03004KT 10SM OVC024 14/12 A3019 Follow KCEW on AV Mobile CRESTVIEW SIKES AIRPORT 119.275 850-682-1237
KEGIFAA ID EGI, KEGI 201258Z AUTO 35003KT 10SM OVC022 13/12 A3018 RMK AO2 SLP222 T01320124 $ Follow KEGI on AV Mobile Duke Field / Eglin Auxiliary
KCTYFAA ID CTY, KCTY 201253Z AUTO 35008KT 14/13 A3010 Follow KCTY on AV Mobile CROSS CITY AIRPORT
KCGCFAA ID CGC, AWOS-3, KCGC 201255Z AUTO 00000KT 5SM BR OVC006 15/14 A3008 RMK AO2 Follow KCGC on AV Mobile CRYSTAL RIVER 118.325 352-563-6600
KDABFAA ID DAB, ASOS, KDAB 201253Z 01015G20KT 10SM -RA OVC014 17/13 A3005 Follow KDAB on AV Mobile DAYTONA BEACH INTERNATIONAL 386-253-7469
54JFAA ID 54J, AWOS-3P, K2V5 201325Z AUTO 30003KT 10SM CLR 07/06 A3002 RMK AO2 T00670064 Follow  on AV Mobile DEFUNIAK SPRINGS 118.725 850-892-0147
KDEDFAA ID DED, AWOS-3, KDED 201015Z AUTO 33009KT 10SM OVC010 16/14 A3001 RMK AO1 Follow KDED on AV Mobile DELAND 119.575 386-740-5811
KDTSFAA ID DTS, ASOS, KDTS 201253Z AUTO 02007KT 10SM OVC018 15/11 A3017 RMK AO2 SLP214 T01500111 TSNO Follow KDTS on AV Mobile DESTIN-FT WALTON BEACH AIRPORT 133.925 850-654-7128
KX91ICAO ID KX91 Egmont Key Coast Guard Station
KFHBFAA ID FHB, AWOS-3, KFHB 201255Z AUTO 34006KT 10SM OVC010 13/11 A3007 RMK AO1 Follow KFHB on AV Mobile FERNANDINA BEACH 118.075 904-277-7323
KFXEFAA ID FXE, ASOS, KFXE 201253Z 28012KT 10SM SCT036 19/14 A3002 Follow KFXE on AV Mobile FORT LAUDERDALE EXECUTIVE 954-772-2537
KFLLFAA ID FLL, ASOS, KFLL 201253Z 30010KT 10SM FEW023 BKN042 21/14 A3002 Follow KFLL on AV Mobile FORT LAUDERDALE/HOLLYWOOD 954-359-7857
KFMYFAA ID FMY, ASOS, KFMY 201253Z 36007KT 10SM OVC031 20/14 A3003 RMK AO2 SLP172 T02000144 Follow KFMY on AV Mobile FORT MYERS PAGE FIELD 239-936-2318
KRSWFAA ID RSW, ASOS, KRSW 201253Z VRB03KT 10SM OVC030 19/14 A3004 Follow KRSW on AV Mobile FORT MYERS SW FL INTERNATIONAL AIRPORT 239-561-0966
KX82ICAO ID KX82 Fort Pierce Coast Guard Station
KFPRFAA ID FPR, ASOS, KFPR 201253Z 30010KT 10SM SCT007 SCT011 OVC036 18/16 A3001 Follow KFPR on AV Mobile FORT PIERCE ST LUCIE 772-489-4281
KX86ICAO ID KX86 Fowey Rocks Coast Guard Station
KX89ICAO ID KX89 Ft. Myers Beach Coast Guard Station
KGNVFAA ID GNV, ASOS, KGNV 201253Z 35008KT 10SM BKN011 14/12 A3009 Follow KGNV on AV Mobile GAINESVILLE REGIONAL AIRPORT 352-335-8672
KHWOFAA ID HWO, ASOS, KHWO 201253Z 30009KT 10SM BKN040 20/14 A3004 RMK AO2 SLP171 T02000144 Follow KHWO on AV Mobile HOLLYWOOD NORTH PERRY AIRPORT 954-983-5904
X51FAA ID X51, AWOS-3, K2V5 201325Z AUTO 30003KT 10SM CLR 07/06 A3002 RMK AO2 T00670064 Follow  on AV Mobile HOMESTEAD 118.375 (305) 247-2791
KHSTFAA ID HST, KHST 201258Z AUTO 32009KT 10SM BKN042 21/15 A3003 RMK AO2 SLP172 T02050148 Follow KHST on AV Mobile Homestead Air Force Base
KIMMFAA ID IMM, AWOS-3, KIMM 201255Z AUTO 31005KT 10SM OVC030 19/18 A3005 RMK A01 P000 Follow KIMM on AV Mobile IMMOKALEE 118.525 239-657-2038
KINFFAA ID INF, AWOS-3, KINF 201255Z AUTO 36004KT 2SM DZ OVC007 15/14 A3008 RMK AO2 VIS 1 1/2V4 Follow KINF on AV Mobile INVERNESS 119.975 352-341-0264
KX84ICAO ID KX84 Islamorada Coast Guard Station
KHEGFAA ID HEG, AWOS-3 JACKSONVILLE 119.275 904-695-0334
KCRGFAA ID CRG, ASOS, KCRG 201253Z 35008KT 9SM -RA OVC009 14/12 A3008 RMK AO2 SLP186 P0000 T01440117 Follow KCRG on AV Mobile JACKSONVILLE CRAIG MUN 904-646-4670
KJAXFAA ID JAX, ASOS, KJAX 201256Z 36008KT 9SM OVC009 13/12 A3009 Follow KJAX on AV Mobile JACKSONVILLE INTERNATIONAL 904-741-4304
KNIPFAA ID NIP, KNIP 201253Z 35012KT 8SM BKN010 OVC014 14/12 A3009 RMK AO2 SLP185 T01390117 Follow KNIP on AV Mobile JACKSONVILLE NAVAL AIR STN
KVQQFAA ID VQQ, AWOS-3, KVQQ 201250Z 36010KT 3SM BR OVC004 12/11 A3009 Follow KVQQ on AV Mobile Jacksonville, Cecil Field Airport 125.275 904-778-6934
KNENFAA ID NEN NOLF WHITEHOUSE FIELD, FL
KX80ICAO ID KX80 Jupiter Inlet Coast Guard Station
KEYWFAA ID EYW, ASOS, KEYW 201253Z 30008KT 10SM OVC041 23/17 A3005 Follow KEYW on AV Mobile KEY WEST INTERNATIONAL AIRPORT 119.65 305-292-4046
KNQXFAA ID NQX, KNQX 201253Z 31009KT 10SM BKN040 23/15 A3005 RMK AO2 SLP173 T02330150 $ Follow KNQX on AV Mobile KEY WEST NAVAL AIR STATION
K42JFAA ID 42J, AWOS-3, K42J 201255Z AUTO 34006KT 1 1/2SM SCT001 OVC010 13/13 A3010 RMK AO1 Follow K42J on AV Mobile KEYSTONE HEIGHTS 124.275 352-473-8273
KLCQFAA ID LCQ, AWOS-3 LAKE CITY 120.675 386-754-9366
X07FAA ID X07, AWOS-3, K2V5 201325Z AUTO 30003KT 10SM CLR 07/06 A3002 RMK AO2 T00670064 Follow  on AV Mobile LAKE WALES 124.225 863-678-1334
KX81ICAO ID KX81 Lake Worth Inlet
KLALFAA ID LAL, AWOS-3PT, KLAL 201250Z 34006KT 10SM OVC007 17/16 A3006 Follow KLAL on AV Mobile Lakeland Regional 118.025 863-834-2030
KLEEFAA ID LEE, ASOS, KLEE 201253Z 36010KT 10SM SCT008 OVC015 16/14 A3007 RMK AO2 RAE43 SLP181 P0000 T01560144 Follow KLEE on AV Mobile LEESBURG REGIONAL AIRPORT 134.325 352-787-1565
24JFAA ID 24J, AWOS-3, K2V5 201325Z AUTO 30003KT 10SM CLR 07/06 A3002 RMK AO2 T00670064 Follow  on AV Mobile LIVE OAK 118.225 386-362-1731
KX88ICAO ID KX88 Marathon Coast Guard Station
KMTHFAA ID MTH, ASOS, KMTH 201253Z AUTO 30009KT 10SM BKN040 23/15 A3004 RMK AO2 SLP171 T02330150 Follow KMTH on AV Mobile MARATHON AIRPORT 135.525 305-743-8373
KMKYFAA ID MKY, AWOS-3, KMKY 201255Z AUTO 03004KT 10SM OVC033 19/15 A3003 RMK AO1 Follow KMKY on AV Mobile MARCO ISLAND 120.075 239-394-8187
KMAIFAA ID MAI, ASOS, KMAI 201253Z AUTO 01008KT 10SM OVC016 13/12 A3015 RMK AO2 SLP209 T01330117 PWINO Follow KMAI on AV Mobile MARIANNA MUNICIPAL AIRPORT 133.525 850-482-6082
KHRTFAA ID HRT, KHRT 201258Z AUTO 03007KT 10SM OVC015 14/10 A3017 RMK AO2 SLP218 T01380095 $ Follow KHRT on AV Mobile Hurlburt Field
KNRBFAA ID NRB, KNRB 201252Z AUTO 34007KT 300V360 10SM OVC010 14/12 A3008 RMK AO2 SLP184 T01390117 $ Follow KNRB on AV Mobile MAYPORT NAVAL AIR FACILITY
KMLBFAA ID MLB, ASOS, KMLB 201253Z 30011KT 10SM OVC018 18/15 A3001 Follow KMLB on AV Mobile MELBOURNE INTERNATIONAL 321-723-7403
KCOIFAA ID COI, AWOS-3 Merritt Island, Merritt Island Airport 119.025 321-986-8864
KTNTFAA ID TNT, AWOS-3 MIAMI 119.075 (239) 695-9198
KX87ICAO ID KX87 Miami Beach Coast Guard Station
KAMXICAO ID KAMX Miami Nexrad
KTMBFAA ID TMB, ASOS, KTMB 201253Z 33009KT 10SM SCT041 22/16 A3003 Follow KTMB on AV Mobile KENDALL-TAMIAMI EXEC AIRPORT 305-235-1332
KMIAFAA ID MIA, ASOS, KMIA 201253Z 31009KT 10SM FEW025 SCT041 21/14 A3003 Follow KMIA on AV Mobile MIAMI INTERNATIONAL AIRPORT 305-870-0235
KOPFFAA ID OPF, KOPF 201253Z 31011KT 10SM OVC041 20/13 A3003 Follow KOPF on AV Mobile MIAMI OPA LOCKA AIRPORT
KNFJFAA ID NFJ CHOCTAW, WHITING FIELD, NOLF
KNSEFAA ID NSE, KNSE 201256Z AUTO 01005KT 10SM OVC027 14/10 A3018 RMK AO2 SLP206 T01390100 $ Follow KNSE on AV Mobile MILTON WHITING FIELD (NORTH)
KNDZFAA ID NDZ, KNDZ 201256Z AUTO 02008KT 10SM BKN028 15/11 A3018 RMK AO2 SLP205 T01500106 $ Follow KNDZ on AV Mobile MILTON WHITING FIELD (SOUTH)
KAPFFAA ID APF, ASOS, KAPF 201253Z 01006KT 10SM BKN038 21/16 A3003 Follow KAPF on AV Mobile NAPLES MUNICIPAL AIRPORT 239-643-9886
KRRFICAO ID KRRF New Port Richey, Tampa Bay Executive Airport
KEVBFAA ID EVB, AWOS-3, KEVB 192347Z AUTO 27012G20KT 10SM FEW050 20/14 A2993 Follow KEVB on AV Mobile New Smyrna Beach, New Smyrna Beach Municipal Airport 124.625 386-409-4705
KOCFFAA ID OCF, AWOS-3, KOCF 201250Z 01011KT 5SM BR OVC006 15/11 A3009 Follow KOCF on AV Mobile Ocala, Ocala International Airport-Jim Taylor Field 128.125 352-237-8525
KOBEFAA ID OBE, AWOS-3, KOBE 201255Z AUTO 33007KT 10SM BKN008 BKN021 OVC033 17/15 A3003 RMK AO2 Follow KOBE on AV Mobile Okeechobee County Airport 118.675 863-467-1148
KORLFAA ID ORL, ASOS, KORL 201253Z 01010KT 10SM OVC012 17/14 A3005 RMK AO2 SLP179 T01670139 Follow KORL on AV Mobile ORLANDO EXECUTIVE AIRPORT 407-658-6753
KMCOFAA ID MCO, ASOS, KMCO 201253Z 35012KT 10SM OVC011 17/14 A3004 Follow KMCO on AV Mobile ORLANDO INTERNATIONAL AIRPORT 407-855-5235
KSFBFAA ID SFB, ASOS, KSFB 201253Z 01012KT 10SM OVC012 16/14 A3004 Follow KSFB on AV Mobile ORLANDO SANFORD AIRPORT 407-321-9384
KISMFAA ID ISM, AWOS-3, KISM 201250Z 01006KT 10SM OVC012 17/15 A3004 Follow KISM on AV Mobile Orlando, Kissimmee Municipal Airport 128.775 407-847-0533
KOMNFAA ID OMN, AWOS-3, KOMN 201250Z 36010G15KT 7SM BKN013 OVC018 15/14 A3006 Follow KOMN on AV Mobile Ormond Beach, Ormond Beach Municipal Airport 118.475 386-615-7084
28JFAA ID 28J, AWOS-3, K2V5 201325Z AUTO 30003KT 10SM CLR 07/06 A3002 RMK AO2 T00670064 Follow  on AV Mobile PALATKA 119.92 386-312-2212
KXFLFAA ID XFL, AWOS-3, KXFL 201250Z 33010KT 3SM BR OVC008 15/14 A3006 Follow KXFL on AV Mobile PALM COAST 128.325 386-437-7334
KECPFAA ID ECP, ASOS, KECP 201253Z 36007KT 10SM OVC014 14/11 A3014 Follow KECP on AV Mobile PANAMA CITY 119.975 850-235-7857
KPFNICAO ID KPFN, KPFN 030253Z VRB03KT 10SM FEW023 25/23 A2989 Follow KPFN on AV Mobile PANAMA CITY-BAY CTY INTERNATIONAL
KPAMFAA ID PAM, KPAM 201258Z AUTO VRB05KT 10SM OVC012 14/11 A3015 RMK AO2 SLP213 T01400114 $ Follow KPAM on AV Mobile Tyndall Air Force Base
KPNSFAA ID PNS, ASOS, KPNS 201253Z 01006KT 10SM CLR 16/12 A3017 Follow KPNS on AV Mobile PENSACOLA REGIONAL AIRPORT 850-436-4799
KNPAFAA ID NPA, KNPA 201256Z AUTO 03006KT 10SM CLR 16/12 A3017 RMK AO2 SLP217 T01560122 $ Follow KNPA on AV Mobile Pensacola, Naval Air Station
K40JFAA ID 40J, AWOS-3PT, K40J 201255Z AUTO 02007KT 3SM BR BKN007 OVC013 12/12 A3012 RMK AO2 Follow K40J on AV Mobile PERRY-FOLEY AIRPORT 118.375 850-838-3526
FA54FAA ID FA54, Belfort CORAL CREEK
KPCMFAA ID PCM, AWOS-3, KPCM 201255Z AUTO 36005KT 10SM SCT008 OVC021 18/ A3008 RMK AO2 Follow KPCM on AV Mobile Plant City, Plant City Municipal Airport 120.025 813-764-8259
KPMPFAA ID PMP, ASOS, KPMP 201253Z 28010KT 10SM FEW025 SCT035 BKN060 20/14 A3002 RMK AO2 SLP166 T02000139 Follow KPMP on AV Mobile POMPANO BEACH AIRPARK 954-783-3720
K1J3ICAO ID K1J3 Ponce De Leon Inlet
KPGDFAA ID PGD, ASOS, KPGD 201253Z 01007KT 10SM OVC033 19/16 A3006 RMK AO2 SLP181 T01940161 Follow KPGD on AV Mobile PUNTA GORDA CHARLOTTE COUNTY 135.675 941-639-0076
K1J5ICAO ID K1J5 Santa Rosa Coast Guard Station
KSRQFAA ID SRQ, ASOS, KSRQ 201253Z 06007KT 10SM SCT011 BKN033 18/16 A3005 Follow KSRQ on AV Mobile SARASOTA/BRADENTON INTERNATIONAL . 124.375 941-359-0117
KSEFFAA ID SEF, AWOS-3 SEBRING 119.475 863-655-6424
KSGJFAA ID SGJ, AWOS-3, KSGJ 201258Z 34010KT 3SM BR OVC008 14/13 A3008 RMK AO2 SLP186 T01390128 $ Follow KSGJ on AV Mobile St. Augustine, St. Augustine Airport 904-824-7084
KPIEFAA ID PIE, ASOS, KPIE 201253Z 36007KT 10SM BKN008 BKN033 17/14 A3007 Follow KPIE on AV Mobile ST PETERSBURG/CLEARWATER 727-531-3456
KSPGFAA ID SPG, ASOS, KSPG 201253Z 02009KT 10SM OVC011 18/16 A3005 RMK AO2 SLP174 T01830161 Follow KSPG on AV Mobile ST PETERSBURG WHITTED AIRPORT 118.875 727-821-4334
KSUAFAA ID SUA, AWOS-3, KSUA 201247Z 30008KT 7SM BKN013 OVC020 18/15 A3003 Follow KSUA on AV Mobile Stuart, Witham Field Airport 772-692-7399
KTLHFAA ID TLH, ASOS, KTLH 201306Z 02008KT 5SM BR SCT009 OVC020 14/12 A3014 Follow KTLH on AV Mobile TALLAHASSEE REGIONAL AIRPORT 850-576-3665
KTBWICAO ID KTBW Tampa Bay Area
KMCFFAA ID MCF, KMCF 201303Z AUTO VRB05KT 10SM BKN011 BKN029 18/17 A3006 RMK AO2 Follow KMCF on AV Mobile Macdill Air Force Base, Fl.
KTPAFAA ID TPA, ASOS, KTPA 201253Z 34008KT 10SM BKN011 BKN026 17/14 A3007 Follow KTPA on AV Mobile TAMPA INTERNATIONAL AIRPORT 813-873-7228
KTPFFAA ID TPF, AWOS-3, KTPF 201255Z AUTO 01004KT 10SM SCT010 SCT028 19/16 A3006 RMK AO2 Follow KTPF on AV Mobile Tampa, Peter O Knight Airport 118.925 813-251-6824
KVDFFAA ID VDF, AWOS-3, KVDF 201255Z AUTO 36004KT 10SM SCT009 BKN026 20/15 A3007 RMK AO2 Follow KVDF on AV Mobile Tampa, Vandenberg Airport 121.125 813-630-0924
KVLGICAO ID KVLG The Villages
KVVGICAO ID KVVG, KVVG 201255Z AUTO 01007KT 5SM BR 15/14 A3007 RMK AO2 Follow KVVG on AV Mobile The Villages
KX68ICAO ID KX68 Titusville, NASA Shuttle Landing Facility
KTIXFAA ID TIX, KTIX 201250Z 32012KT 4SM BR OVC008 16/15 A3003 Follow KTIX on AV Mobile Titusville
KX21FAA ID X21, AWOS-3 Titusville, Arthur Dunn Air Park 119.725 321-385-0383
KTTSFAA ID TTS, KTTS 201258Z AUTO 35011KT 10SM OVC016 18/15 A3002 RMK AO2 DZB1216E1225 SLP169 P0000 T01780154 $ Follow KTTS on AV Mobile Titusville, NASA Shuttle Landing Facility
KVPSFAA ID VPS, KVPS 201256Z 34004KT 10SM BKN019 14/12 A3018 RMK AO2A SLP226 T014100121 $ Follow KVPS on AV Mobile Valparaiso / Eglin Air Force Base
KVNCFAA ID VNC, AWOS-3, KVNC 201255Z AUTO 02006KT 10SM CLR 19/16 A3006 RMK AO2 Follow KVNC on AV Mobile VENICE 119.275
KX90ICAO ID KX90 Venice Long Range Navigation
KVRBFAA ID VRB, ASOS, KVRB 201253Z 30009KT 10SM RA BKN007 OVC012 18/17 A3001 Follow KVRB on AV Mobile VERO BEACH MUNICIPAL AIRPORT 772-978-9535
F45FAA ID F45, AWOS-3, K2V5 201325Z AUTO 30003KT 10SM CLR 07/06 A3002 RMK AO2 T00670064 Follow  on AV Mobile WEST PALM BEACH 119.975 561-630-6932
KLNAFAA ID LNA, AWOS-3 WEST PALM BEACH 119.925 561-964-0308
KPBIFAA ID PBI, ASOS, KPBI 201253Z 30008KT 10SM BKN028 19/13 A3000 Follow KPBI on AV Mobile PALM BEACH INTERNATIONAL 123.75 561-683-2548
FD38FAA ID FD38, Belfort WELLINGTON AERO CLUB
X60FAA ID X60, AWOS-3, K2V5 201325Z AUTO 30003KT 10SM CLR 07/06 A3002 RMK AO2 T00670064 Follow  on AV Mobile WILLISTON 118.425 352-528-9949
KGIFFAA ID GIF, ASOS, KGIF 201253Z AUTO 33009KT 3SM -RA BR OVC008 17/16 A3006 RMK AO2 RAE15B25 SLP178 P0000 T01670156 TSNO $ Follow KGIF on AV Mobile WINTER HAVENS GILBERT AIRPORT 133.675 863-956-2097
KZPHFAA ID ZPH, ASOS, KZPH 181915Z AUTO 18008G14KT 10SM SCT034 SCT040 BKN120 26/20 A2999 RMK AO2 LTG DSNT S AND W Follow KZPH on AV Mobile ZEPHYRHILLS 118.975 813-780-0031

Click on the AV Mobile icon AV Mobile icon by any station to follow that AWOS feed on AirportView.net Mobile.

Garmin aera 796 $1999 at Avionics Specialists LLC
Bose A20 Aviation Headsets $995 at Avionics Specialists LLC